Time;durP1;ratioP1;P1;durP2;ratioP2;P2;SDS_P1;SDS_P2;PMS_P1;PMS_P2;Temp;Humidity;BMP_temperature;BMP_pressure;BME280_temperature;BME280_humidity;BME280_pressure;Samples;Min_cycle;Max_cycle;Signal;HPM_P1;HPM_P2
2023/07/31 00:02:12;;;;;;;9.40;5.95;;;;;;;15.16;79.88;98546.09;5070752;27;20046;-71
2023/07/31 00:04:39;;;;;;;12.73;6.38;;;;;;;15.17;79.90;98520.94;5061013;27;20424;-73
2023/07/31 00:07:06;;;;;;;9.45;5.78;;;;;;;15.16;80.13;98531.84;5043604;27;20509;-73
2023/07/31 00:09:32;;;;;;;11.27;5.25;;;;;;;15.14;80.32;98532.00;5036305;28;20055;-69
2023/07/31 00:12:03;;;;;;;11.63;5.82;;;;;;;15.10;80.65;98524.47;5080893;27;20039;-69
2023/07/31 00:14:31;;;;;;;11.20;6.72;;;;;;;15.07;80.59;98514.88;5056280;28;20048;-68
2023/07/31 00:16:57;;;;;;;12.07;6.53;;;;;;;15.03;80.46;98518.06;5061928;27;20042;-68
2023/07/31 00:19:22;;;;;;;11.18;6.13;;;;;;;14.99;80.40;98522.94;5070221;27;20047;-66
2023/07/31 00:30:04;;;;;;;8.27;6.13;;;;;;;14.89;80.19;98520.41;4906009;28;20062;-66
2023/07/31 00:32:31;;;;;;;11.00;6.18;;;;;;;14.87;80.24;98518.88;4893968;29;20051;-66
2023/07/31 00:34:59;;;;;;;10.07;5.90;;;;;;;14.85;80.52;98524.41;4911555;28;20055;-66
2023/07/31 00:37:27;;;;;;;11.57;5.40;;;;;;;14.86;79.90;98522.56;4912647;29;20863;-66
2023/07/31 00:40:20;;;;;;;9.88;5.63;;;;;;;14.92;80.25;98521.91;4902984;29;20060;-64
2023/07/31 00:42:46;;;;;;;9.77;5.22;;;;;;;14.85;79.87;98515.50;4923999;29;20047;-64
2023/07/31 00:46:03;;;;;;;13.23;5.97;;;;;;;14.94;79.95;98519.06;4915180;29;20048;-64
2023/07/31 00:48:30;;;;;;;9.37;6.00;;;;;;;14.86;80.31;98512.69;4884661;29;20511;-64
2023/07/31 00:50:55;;;;;;;11.48;5.55;;;;;;;14.85;80.22;98500.25;4912121;29;20576;-64
2023/07/31 00:53:24;;;;;;;9.90;5.68;;;;;;;14.84;80.00;98503.94;4896067;29;20059;-64
2023/07/31 00:55:50;;;;;;;9.23;5.40;;;;;;;14.83;79.81;98512.16;4911813;29;20058;-64
2023/07/31 00:58:19;;;;;;;9.73;6.35;;;;;;;14.81;79.99;98506.94;4895918;29;20052;-64
2023/07/31 01:00:44;;;;;;;10.77;5.35;;;;;;;14.83;80.03;98506.78;4895917;29;20159;-64
2023/07/31 01:03:12;;;;;;;16.48;6.40;;;;;;;14.84;80.16;98508.47;4913285;28;20504;-64
2023/07/31 01:05:57;;;;;;;16.35;6.30;;;;;;;14.88;80.24;98488.38;4951189;28;20061;-63
2023/07/31 01:08:42;;;;;;;11.63;6.03;;;;;;;14.88;80.75;98505.31;5066119;28;20492;-64
2023/07/31 01:11:17;;;;;;;11.27;5.70;;;;;;;14.85;80.39;98511.00;5093464;28;20043;-66
2023/07/31 01:13:44;;;;;;;;;;;;;;;14.94;80.22;98509.16;5071045;28;20051;-63
2023/07/31 01:16:10;;;;;;;11.82;6.18;;;;;;;14.82;79.90;98521.19;5055561;28;19922;-64
2023/07/31 01:19:00;;;;;;;16.08;6.25;;;;;;;14.87;80.18;98519.72;5091347;28;20404;-67
2023/07/31 01:21:44;;;;;;;11.20;6.07;;;;;;;14.83;79.50;98513.00;5093489;28;20043;-68
2023/07/31 01:24:49;;;;;;;12.07;5.15;;;;;;;14.84;79.29;98503.94;5092886;28;20043;-70
2023/07/31 01:27:25;;;;;;;9.88;6.05;;;;;;;14.80;79.20;98513.31;5044785;28;20044;-71
2023/07/31 01:30:10;;;;;;;12.43;6.30;;;;;;;14.81;79.51;98506.94;5071789;28;20047;-70
2023/07/31 01:32:39;;;;;;;9.38;6.03;;;;;;;14.70;79.73;98523.34;5078995;28;20870;-70
2023/07/31 01:35:05;;;;;;;11.95;7.15;;;;;;;14.69;79.41;98521.66;5073590;28;20035;-70
2023/07/31 01:37:31;;;;;;;9.27;5.93;;;;;;;14.70;79.42;98517.97;5073924;28;20062;-70
2023/07/31 01:39:57;;;;;;;12.48;5.72;;;;;;;14.69;79.58;98515.47;5038074;28;20056;-68
2023/07/31 01:42:23;;;;;;;13.20;5.90;;;;;;;14.68;79.69;98530.72;5058438;28;20062;-69
2023/07/31 01:44:50;;;;;;;9.02;5.70;;;;;;;14.69;79.74;98527.03;5088913;28;20066;-68
2023/07/31 01:47:16;;;;;;;13.13;5.93;;;;;;;14.69;79.78;98508.25;5091187;28;20408;-69
2023/07/31 01:49:42;;;;;;;12.10;6.40;;;;;;;14.71;79.77;98506.25;5058987;28;20051;-69
2023/07/31 01:52:08;;;;;;;11.95;5.95;;;;;;;14.71;80.00;98530.41;5074764;28;20043;-70
2023/07/31 01:54:33;;;;;;;11.23;5.80;;;;;;;14.71;80.15;98525.03;5088597;28;20051;-71
2023/07/31 01:57:05;;;;;;;9.07;5.60;;;;;;;14.73;80.58;98512.28;5054651;28;20043;-70
2023/07/31 01:59:30;;;;;;;10.52;6.30;;;;;;;14.73;80.47;98512.28;5072895;28;20413;-71
2023/07/31 02:01:55;;;;;;;10.38;6.03;;;;;;;14.75;80.06;98525.56;5076700;28;20412;-71
2023/07/31 02:04:22;;;;;;;8.98;5.90;;;;;;;14.77;80.39;98508.28;5075694;28;20044;-72
2023/07/31 02:06:47;;;;;;;10.88;5.80;;;;;;;14.82;80.73;98511.31;5074121;28;20047;-73
2023/07/31 02:09:14;;;;;;;11.43;5.53;;;;;;;14.87;80.59;98514.34;5074179;28;20048;-73
2023/07/31 02:11:41;;;;;;;13.10;7.68;;;;;;;14.90;80.71;98524.75;5057157;28;20413;-75
2023/07/31 02:14:08;;;;;;;11.15;5.72;;;;;;;15.02;80.40;98532.47;5043656;28;20054;-75
2023/07/31 02:16:34;;;;;;;12.90;6.53;;;;;;;15.08;79.79;98515.72;5059346;28;20048;-74
2023/07/31 02:19:00;;;;;;;8.60;5.68;;;;;;;15.14;79.41;98513.22;5059892;28;20040;-73
2023/07/31 02:21:25;;;;;;;11.60;6.10;;;;;;;15.21;79.34;98518.78;5078533;28;20531;-75
2023/07/31 02:23:51;;;;;;;10.50;5.53;;;;;;;15.25;79.02;98512.03;5042469;28;20052;-76
2023/07/31 02:26:21;;;;;;;14.48;6.50;;;;;;;15.31;78.42;98543.63;5075383;28;20489;-71
2023/07/31 02:28:46;;;;;;;15.85;7.20;;;;;;;15.37;78.17;98516.09;5056511;28;20051;-71
2023/07/31 02:31:12;;;;;;;11.13;6.43;;;;;;;15.42;77.96;98513.75;5059016;27;20042;-70
2023/07/31 02:33:39;;;;;;;8.82;5.90;;;;;;;15.48;77.89;98515.75;5078779;27;20401;-70
2023/07/31 02:36:04;;;;;;;16.67;5.97;;;;;;;15.55;77.47;98535.59;5062257;27;20051;-71
2023/07/31 02:38:30;;;;;;;15.10;6.35;;;;;;;15.61;77.17;98544.81;5062632;27;20043;-70
2023/07/31 02:40:56;;;;;;;9.15;5.43;;;;;;;15.69;76.75;98514.44;5078357;27;20448;-72
2023/07/31 02:43:27;;;;;;;9.43;5.57;;;;;;;15.79;76.61;98532.06;5064469;27;20047;-66
2023/07/31 02:45:54;;;;;;;14.98;5.90;;;;;;;15.88;76.10;98519.47;5079300;27;20051;-70
2023/07/31 02:48:23;;;;;;;9.25;5.65;;;;;;;15.97;75.74;98502.28;5055919;27;20421;-71
2023/07/31 02:50:49;;;;;;;6.88;5.15;;;;;;;16.10;75.22;98524.13;5094525;27;20035;-71
2023/07/31 02:53:14;;;;;;;12.70;5.80;;;;;;;16.23;75.32;98512.81;5041674;28;20043;-67
2023/07/31 02:55:43;;;;;;;10.63;6.28;;;;;;;16.37;74.77;98519.31;5059111;27;20043;-68
2023/07/31 02:58:09;;;;;;;10.38;5.13;;;;;;;16.48;74.34;98518.97;5062292;27;20497;-68
2023/07/31 03:00:34;;;;;;;9.48;5.70;;;;;;;16.59;74.28;98508.63;5071977;27;20058;-67
2023/07/31 03:03:00;;;;;;;9.35;5.85;;;;;;;16.72;73.68;98516.16;5073939;27;20050;-70
2023/07/31 03:05:27;;;;;;;7.38;5.68;;;;;;;16.85;73.76;98508.34;5079674;27;20438;-70
2023/07/31 03:07:57;;;;;;;9.80;5.82;;;;;;;16.99;73.45;98510.31;5097417;27;20051;-73
2023/07/31 03:10:23;;;;;;;8.98;5.78;;;;;;;17.10;72.59;98511.75;5079834;27;20507;-74
2023/07/31 03:12:48;;;;;;;7.53;5.18;;;;;;;17.21;71.67;98507.81;5095665;27;20054;-77
2023/07/31 03:15:18;;;;;;;8.85;5.55;;;;;;;17.32;70.73;98493.91;5096325;27;20035;-75
2023/07/31 03:20:35;;;;;;;8.35;5.43;;;;;;;17.54;70.41;98503.84;5063712;27;20046;-78
2023/07/31 03:23:00;;;;;;;7.22;5.05;;;;;;;17.68;70.05;98513.84;5078282;27;20047;-79
2023/07/31 03:25:25;;;;;;;9.82;4.95;;;;;;;17.82;69.47;98511.38;5075282;27;20047;-79
2023/07/31 03:27:52;;;;;;;11.55;5.57;;;;;;;17.93;68.78;98525.25;5077899;27;20050;-76
2023/07/31 03:30:18;;;;;;;8.27;5.18;;;;;;;18.07;68.26;98496.59;5077310;27;20050;-69
2023/07/31 03:32:44;;;;;;;10.18;5.60;;;;;;;18.20;67.66;98494.09;5059417;27;20051;-70
2023/07/31 03:38:02;;;;;;;14.05;5.65;;;;;;;18.46;66.99;98516.06;5078450;27;20039;-71
2023/07/31 03:40:28;;;;;;;7.03;5.03;;;;;;;18.62;66.23;98498.88;5061101;27;20053;-70
2023/07/31 03:42:54;;;;;;;17.15;6.75;;;;;;;18.72;66.22;98466.19;5078506;27;20042;-71
2023/07/31 03:45:19;;;;;;;8.70;6.18;;;;;;;18.83;65.85;98512.44;5091008;27;20035;-70
2023/07/31 03:47:46;;;;;;;11.07;5.60;;;;;;;18.94;65.53;98491.34;5057929;28;20058;-70
2023/07/31 03:50:11;;;;;;;10.15;4.95;;;;;;;19.00;64.75;98495.97;5057979;28;20050;-70
2023/07/31 03:52:38;;;;;;;8.80;4.20;;;;;;;19.05;64.05;98494.38;5040540;28;20047;-70
2023/07/31 03:55:04;;;;;;;9.88;4.60;;;;;;;19.11;63.25;98498.19;5057825;28;20054;-70
2023/07/31 03:57:32;;;;;;;7.97;4.10;;;;;;;19.17;62.84;98497.44;5076144;28;20040;-70
2023/07/31 04:00:22;;;;;;;10.73;4.93;;;;;;;19.28;62.02;98502.31;5075535;27;20481;-69
2023/07/31 04:02:48;;;;;;;6.28;4.72;;;;;;;19.36;61.50;98504.03;5077810;27;20039;-70
2023/07/31 04:05:17;;;;;;;8.88;4.57;;;;;;;19.52;61.72;98510.06;5096314;27;20420;-71
2023/07/31 04:07:42;;;;;;;10.35;4.47;;;;;;;19.73;61.84;98506.50;5095838;27;20047;-71
2023/07/31 04:10:09;;;;;;;9.32;4.53;;;;;;;19.89;61.18;98518.88;5057371;28;20521;-71
2023/07/31 04:12:34;;;;;;;6.63;4.20;;;;;;;20.02;59.53;98508.16;5057561;28;20055;-69
2023/07/31 04:15:00;;;;;;;6.22;3.97;;;;;;;20.11;59.30;98506.16;5059542;28;20044;-76
2023/07/31 04:17:29;;;;;;;9.45;4.53;;;;;;;20.22;59.06;98519.97;5058492;28;20058;-76
2023/07/31 04:19:55;;;;;;;6.78;4.45;;;;;;;20.27;58.68;98533.75;5076385;28;20046;-75
2023/07/31 04:22:21;;;;;;;7.43;3.60;;;;;;;20.40;58.56;98522.19;5077162;28;20054;-75
2023/07/31 04:24:49;;;;;;;7.15;4.10;;;;;;;20.52;58.32;98531.44;5058250;28;20536;-74
2023/07/31 04:27:15;;;;;;;8.27;4.05;;;;;;;20.73;58.46;98510.69;5041668;28;20043;-75
2023/07/31 04:29:45;;;;;;;6.63;4.00;;;;;;;20.90;57.14;98501.16;5057817;28;20052;-75
2023/07/31 04:32:11;;;;;;;11.52;3.88;;;;;;;21.11;56.69;98463.06;5058622;28;20043;-73
2023/07/31 04:34:37;;;;;;;7.45;4.05;;;;;;;21.46;56.99;98518.00;5041059;28;20421;-74
2023/07/31 04:37:03;;;;;;;5.72;3.78;;;;;;;21.82;55.95;98514.91;5057446;28;20055;-74
2023/07/31 04:39:32;;;;;;;7.25;3.80;;;;;;;22.15;54.47;98535.81;5057495;28;20042;-76
2023/07/31 04:41:59;;;;;;;6.30;3.83;;;;;;;22.52;53.87;98518.00;5057607;28;20059;-74
2023/07/31 04:44:26;;;;;;;3.88;3.03;;;;;;;22.87;52.95;98516.66;5075500;28;20042;-74
2023/07/31 04:47:17;;;;;;;6.03;3.30;;;;;;;23.34;51.27;98506.38;5075955;28;20054;-75
2023/07/31 04:49:42;;;;;;;4.80;3.65;;;;;;;23.68;50.93;98513.28;5076072;28;20047;-75
2023/07/31 04:52:11;;;;;;;4.90;3.70;;;;;;;24.00;49.16;98517.63;5057388;28;20043;-75
2023/07/31 04:54:37;;;;;;;4.75;3.72;;;;;;;24.31;48.35;98514.00;5059218;28;20040;-78
2023/07/31 04:57:06;;;;;;;5.47;3.70;;;;;;;24.61;47.92;98509.47;5075592;28;20051;-78
2023/07/31 04:59:34;;;;;;;7.35;3.55;;;;;;;24.83;47.17;98515.28;5058659;28;20055;-78
2023/07/31 05:02:01;;;;;;;5.07;3.78;;;;;;;25.11;47.12;98511.19;5057262;28;20050;-77
2023/07/31 05:04:30;;;;;;;5.18;4.22;;;;;;;25.35;45.50;98514.84;5074995;28;20066;-77
2023/07/31 05:06:57;;;;;;;8.38;3.25;;;;;;;25.56;45.12;98517.06;5076515;28;20055;-78
2023/07/31 05:09:23;;;;;;;5.22;3.15;;;;;;;25.69;44.96;98516.88;5076985;28;20613;-78
2023/07/31 05:17:30;;;;;;;5.03;3.67;;;;;;;26.24;44.05;98509.22;5074966;28;20040;-71
2023/07/31 05:19:55;;;;;;;4.18;3.40;;;;;;;26.50;43.39;98507.94;5056636;28;20036;-71
2023/07/31 05:22:24;;;;;;;10.57;4.13;;;;;;;26.69;42.98;98523.13;5075654;28;20039;-70
2023/07/31 05:24:54;;;;;;;5.82;3.70;;;;;;;26.94;42.66;98498.25;5075180;28;20044;-69
2023/07/31 05:27:20;;;;;;;5.63;3.90;;;;;;;27.08;41.76;98510.56;5056042;28;20137;-70
2023/07/31 05:29:46;;;;;;;6.03;4.00;;;;;;;27.16;41.47;98503.88;5056670;28;20044;-70
2023/07/31 05:32:11;;;;;;;6.82;3.88;;;;;;;27.20;41.79;98513.25;5075470;28;20410;-71
2023/07/31 05:34:37;;;;;;;5.72;4.10;;;;;;;27.46;41.48;98500.88;5090381;28;20059;-70
2023/07/31 05:37:02;;;;;;;6.53;3.67;;;;;;;27.73;41.11;98507.44;5080161;28;20047;-70
2023/07/31 05:39:27;;;;;;;7.68;3.45;;;;;;;27.85;40.27;98482.69;5090372;28;20031;-70
2023/07/31 05:41:54;;;;;;;4.85;3.67;;;;;;;28.04;39.29;98507.94;5076176;28;20402;-71
2023/07/31 05:44:19;;;;;;;10.32;3.70;;;;;;;28.39;39.40;98514.00;5040601;28;20051;-70
2023/07/31 05:46:49;;;;;;;5.22;3.33;;;;;;;28.70;37.88;98514.41;5058200;28;20058;-73
2023/07/31 05:49:45;;;;;;;5.22;3.38;;;;;;;29.03;36.14;98516.22;5064279;28;20051;-72
2023/07/31 05:52:10;;;;;;;3.50;3.20;;;;;;;29.48;36.33;98507.69;5043752;28;20043;-73
2023/07/31 05:54:38;;;;;;;6.35;3.40;;;;;;;30.05;35.83;98512.66;5059744;28;20055;-73
2023/07/31 05:57:05;;;;;;;3.88;3.10;;;;;;;30.74;34.95;98512.56;5059532;28;20051;-72
2023/07/31 05:59:32;;;;;;;5.32;2.90;;;;;;;31.13;33.53;98500.13;5078397;28;20525;-72
2023/07/31 06:01:58;;;;;;;4.53;3.38;;;;;;;31.50;32.51;98521.13;5059958;28;20054;-73
2023/07/31 06:04:25;;;;;;;4.72;3.08;;;;;;;31.93;31.50;98508.84;5059662;28;20043;-74
2023/07/31 06:07:19;;;;;;;5.30;3.38;;;;;;;32.43;31.38;98510.75;5078391;28;20042;-74
2023/07/31 06:09:47;;;;;;;6.20;3.50;;;;;;;33.07;30.25;98510.03;5059724;28;20052;-74
2023/07/31 06:12:18;;;;;;;4.47;3.05;;;;;;;33.76;28.92;98495.28;5059756;28;20070;-74
2023/07/31 06:14:46;;;;;;;5.07;3.45;;;;;;;34.36;28.38;98468.22;5077893;28;20051;-82
2023/07/31 06:17:14;;;;;;;5.85;3.15;;;;;;;34.93;28.03;98498.59;5061862;28;20046;-78
2023/07/31 06:19:40;;;;;;;6.72;3.60;;;;;;;35.50;27.36;98491.22;5079537;28;20035;-80
2023/07/31 06:22:06;;;;;;;5.30;3.58;;;;;;;36.03;27.05;98502.03;5080190;28;20047;-80
2023/07/31 06:24:34;;;;;;;3.50;3.20;;;;;;;36.41;25.13;98507.53;5061659;28;20055;-78
2023/07/31 06:27:08;;;;;;;7.05;4.05;;;;;;;36.73;25.15;98508.31;5061490;28;20047;-78
2023/07/31 06:29:35;;;;;;;5.75;3.55;;;;;;;37.22;24.76;98508.72;5080683;28;20055;-78
2023/07/31 06:32:04;;;;;;;4.55;3.60;;;;;;;37.77;24.11;98532.53;5045911;28;20039;-80
2023/07/31 06:34:30;;;;;;;3.78;3.40;;;;;;;38.01;23.46;98498.00;5062354;28;20054;-77
2023/07/31 06:36:56;;;;;;;4.35;3.85;;;;;;;38.37;23.56;98492.38;5079329;28;20067;-79
2023/07/31 06:39:22;;;;;;;4.15;3.75;;;;;;;38.91;22.59;98512.63;5080222;28;20050;-80
2023/07/31 06:41:53;;;;;;;4.18;3.70;;;;;;;39.64;21.54;98508.22;5028188;28;20051;-79
2023/07/31 06:44:21;;;;;;;6.82;3.47;;;;;;;40.07;20.75;98509.03;5044718;28;20501;-79
2023/07/31 06:46:47;;;;;;;3.72;3.53;;;;;;;40.60;20.94;98503.03;5062204;28;20497;-78
2023/07/31 06:49:14;;;;;;;4.40;4.00;;;;;;;41.17;20.36;98513.84;5060954;28;20054;-79
2023/07/31 06:51:45;;;;;;;5.10;4.35;;;;;;;41.49;19.73;98512.31;5070413;27;20514;-80
2023/07/31 06:54:11;;;;;;;6.68;4.35;;;;;;;41.85;19.51;98510.91;5061666;28;20833;-79
2023/07/31 06:56:36;;;;;;;6.82;4.13;;;;;;;42.26;19.50;98504.44;5066833;28;20050;-80
2023/07/31 06:59:01;;;;;;;5.00;4.10;;;;;;;42.36;19.52;98498.41;5083997;28;20401;-76
2023/07/31 07:01:30;;;;;;;4.78;4.38;;;;;;;42.45;19.33;98507.56;5080065;28;20063;-79
2023/07/31 07:03:59;;;;;;;5.57;4.20;;;;;;;42.72;18.92;98487.28;5062540;28;20513;-78
2023/07/31 07:06:24;;;;;;;5.28;4.82;;;;;;;42.86;18.54;98505.78;5080087;28;20059;-78
2023/07/31 07:08:50;;;;;;;5.55;5.00;;;;;;;43.01;18.62;98500.28;5080047;28;20044;-77
2023/07/31 07:11:17;;;;;;;5.15;4.75;;;;;;;43.39;18.30;98499.09;5079975;28;20035;-78
2023/07/31 07:13:43;;;;;;;6.53;4.95;;;;;;;43.72;18.41;98505.38;5061281;28;20059;-78
2023/07/31 07:16:10;;;;;;;5.47;5.07;;;;;;;43.94;17.67;98506.81;5044068;28;20043;-77
2023/07/31 07:18:38;;;;;;;5.60;5.07;;;;;;;43.92;18.01;98499.91;5061738;28;20048;-78
2023/07/31 07:21:03;;;;;;;5.85;5.45;;;;;;;44.33;17.95;98495.88;5060833;28;20505;-78
2023/07/31 07:23:31;;;;;;;6.03;5.50;;;;;;;44.65;17.55;98493.94;5079747;28;20039;-80
2023/07/31 07:25:57;;;;;;;6.40;5.85;;;;;;;44.41;17.99;98494.94;5061402;28;20035;-78
2023/07/31 07:28:26;;;;;;;6.30;5.75;;;;;;;44.27;17.24;98531.84;5078349;28;20211;-78
2023/07/31 07:30:54;;;;;;;5.78;5.30;;;;;;;44.43;18.00;98512.25;5042358;28;20109;-77
2023/07/31 07:33:19;;;;;;;6.95;6.28;;;;;;;44.82;17.27;98497.22;5060060;28;20051;-78
2023/07/31 07:35:44;;;;;;;6.78;6.28;;;;;;;45.21;17.17;98495.41;5042346;28;20051;-78
2023/07/31 07:38:09;;;;;;;7.80;6.35;;;;;;;45.61;16.53;98493.50;5076586;28;20043;-78
2023/07/31 07:40:41;;;;;;;6.60;6.10;;;;;;;46.14;16.53;98501.09;5078201;28;20040;-78
2023/07/31 07:43:09;;;;;;;7.57;6.97;;;;;;;46.37;16.21;98498.34;5078150;28;20047;-78
2023/07/31 07:48:29;;;;;;;7.13;6.53;;;;;;;44.71;17.39;98495.28;5043481;28;20052;-79
2023/07/31 07:50:57;;;;;;;7.28;6.55;;;;;;;44.29;17.62;98490.16;5079116;28;20044;-80
2023/07/31 07:53:27;;;;;;;6.82;6.32;;;;;;;44.35;17.71;98505.63;5043489;28;20054;-78
2023/07/31 07:56:00;;;;;;;;;;;;;;;46.21;16.35;98495.59;5079353;28;20047;-79
2023/07/31 07:58:25;;;;;;;8.93;7.93;;;;;;;46.02;16.54;98492.81;5060458;28;19916;-78
2023/07/31 08:00:51;;;;;;;10.93;7.65;;;;;;;46.44;15.83;98503.28;5043560;28;20064;-79
2023/07/31 08:03:20;;;;;;;8.82;8.23;;;;;;;46.81;15.37;98479.00;5079854;28;20067;-82
2023/07/31 08:05:51;;;;;;;9.55;8.88;;;;;;;47.50;14.76;98499.47;5078644;28;20055;-77
2023/07/31 08:08:19;;;;;;;10.05;9.27;;;;;;;48.01;14.73;98482.78;5078759;28;20074;-79
2023/07/31 08:10:45;;;;;;;9.40;8.80;;;;;;;48.48;14.28;98491.81;5067620;27;20046;-79
2023/07/31 08:13:11;;;;;;;9.30;8.60;;;;;;;48.68;14.13;98504.53;5081100;27;20050;-78
2023/07/31 08:15:36;;;;;;;12.27;11.35;;;;;;;49.13;14.02;98508.16;5099190;27;20043;-80
2023/07/31 08:18:28;;;;;;;12.00;11.20;;;;;;;48.88;14.34;98494.63;5098854;27;20065;-81
2023/07/31 08:20:53;;;;;;;10.23;9.43;;;;;;;47.19;15.25;98471.53;5099340;27;20039;-81
2023/07/31 08:23:20;;;;;;;9.27;8.57;;;;;;;46.70;15.91;98477.19;5080538;27;20039;-79
2023/07/31 08:25:45;;;;;;;9.43;8.73;;;;;;;46.65;15.60;98474.69;5080211;27;20047;-77
2023/07/31 08:28:11;;;;;;;8.77;8.15;;;;;;;45.77;15.72;98486.63;5088571;27;20089;-78
2023/07/31 08:30:38;;;;;;;7.22;6.50;;;;;;;44.54;16.60;98473.19;5078058;28;20043;-80
2023/07/31 08:33:08;;;;;;;7.60;7.00;;;;;;;44.27;16.88;98492.50;5059788;28;20113;-77
2023/07/31 08:35:33;;;;;;;11.02;6.85;;;;;;;44.39;17.02;98471.97;5042983;28;20040;-78
2023/07/31 08:38:03;;;;;;;7.50;6.90;;;;;;;44.50;16.35;98478.69;5076870;28;20485;-79
2023/07/31 08:40:37;;;;;;;7.68;6.82;;;;;;;45.16;16.05;98492.88;5059239;28;20063;-79
2023/07/31 08:43:03;;;;;;;7.10;6.60;;;;;;;44.42;16.89;98491.75;5078438;28;20046;-78
2023/07/31 08:45:29;;;;;;;8.13;7.28;;;;;;;43.72;17.37;98482.09;5064410;27;20043;-79
2023/07/31 08:47:57;;;;;;;7.03;6.43;;;;;;;43.13;17.10;98493.03;5077040;27;20054;-79
2023/07/31 08:56:11;;;;;;;7.70;6.75;;;;;;;43.80;16.92;98504.41;5095610;27;20061;-80
2023/07/31 08:58:38;;;;;;;7.78;7.07;;;;;;;43.56;17.22;98489.59;5095912;27;20507;-81
2023/07/31 09:01:07;;;;;;;7.50;6.82;;;;;;;43.96;16.85;98482.03;5095642;27;20043;-81
2023/07/31 09:03:36;;;;;;;8.02;7.43;;;;;;;45.26;16.01;98488.69;5095745;27;20046;-80
2023/07/31 09:06:07;;;;;;;8.60;7.50;;;;;;;45.39;15.93;98487.34;5075086;28;20051;-79
2023/07/31 09:08:58;;;;;;;7.88;7.28;;;;;;;44.81;16.36;98487.16;5077455;28;20046;-81
2023/07/31 09:11:25;;;;;;;7.43;6.72;;;;;;;44.54;16.31;98484.44;5077426;28;20547;-79
2023/07/31 09:13:52;;;;;;;7.97;7.38;;;;;;;46.01;15.65;98496.00;5075665;28;20482;-79
2023/07/31 09:16:30;;;;;;;8.30;7.70;;;;;;;47.20;14.41;98487.28;5071032;28;20417;-80
2023/07/31 09:19:01;;;;;;;10.52;9.82;;;;;;;47.94;14.37;98493.22;5076714;28;20036;-78
2023/07/31 09:21:29;;;;;;;10.63;9.93;;;;;;;49.01;13.97;98478.97;5078444;28;20050;-81
2023/07/31 09:23:55;;;;;;;12.35;11.48;;;;;;;48.18;13.89;98480.59;5081955;28;20050;-78
2023/07/31 09:26:30;;;;;;;9.70;9.02;;;;;;;47.57;14.20;98482.63;5082124;28;20054;-79
2023/07/31 09:28:56;;;;;;;10.75;9.95;;;;;;;47.89;14.44;98480.22;5081006;28;20051;-78
2023/07/31 09:31:44;;;;;;;11.57;10.80;;;;;;;49.85;13.73;98470.59;5081393;28;20059;-80
2023/07/31 09:34:11;;;;;;;13.30;12.50;;;;;;;50.26;12.84;98477.66;5077507;28;20035;-79
2023/07/31 09:36:44;;;;;;;14.55;13.75;;;;;;;49.22;13.18;98474.69;5060979;28;20052;-78
2023/07/31 09:39:11;;;;;;;14.30;13.40;;;;;;;48.53;13.44;98499.97;5059588;28;20055;-80
2023/07/31 09:41:40;;;;;;;10.98;10.27;;;;;;;46.60;14.10;98456.06;5061366;28;20505;-82
2023/07/31 09:44:08;;;;;;;9.50;8.63;;;;;;;44.12;15.48;98466.03;5060437;28;20048;-80
2023/07/31 09:46:36;;;;;;;8.13;6.63;;;;;;;41.82;16.87;98476.03;5042572;28;20044;-77
2023/07/31 09:49:06;;;;;;;6.25;5.75;;;;;;;39.80;18.49;98471.13;5059476;28;20054;-79
2023/07/31 09:51:38;;;;;;;5.78;5.38;;;;;;;38.13;20.23;98474.06;5073790;28;20050;-77
2023/07/31 09:54:13;;;;;;;6.32;5.57;;;;;;;37.04;21.73;98475.16;5079259;28;20039;-79
2023/07/31 09:56:49;;;;;;;5.28;4.78;;;;;;;36.01;22.76;98485.69;5078401;28;20059;-76
2023/07/31 09:59:17;;;;;;;5.93;4.88;;;;;;;37.07;22.54;98485.66;5078232;28;20209;-78
2023/07/31 10:01:46;;;;;;;7.38;5.75;;;;;;;39.22;21.07;98438.09;5080136;28;20031;-78
2023/07/31 10:04:14;;;;;;;5.63;5.13;;;;;;;40.72;19.65;98435.31;5079723;28;20432;-77
2023/07/31 10:06:46;;;;;;;5.57;5.07;;;;;;;41.14;18.94;98474.53;5099101;27;20047;-76
2023/07/31 10:09:16;;;;;;;5.40;4.90;;;;;;;41.42;18.23;98469.25;5065473;27;20053;-78
2023/07/31 10:11:45;;;;;;;6.18;5.57;;;;;;;42.44;17.94;98424.69;5097789;27;20039;-79
2023/07/31 10:14:15;;;;;;;6.25;5.65;;;;;;;43.38;17.73;98430.94;5082711;27;20051;-78
2023/07/31 10:17:09;;;;;;;7.10;6.18;;;;;;;43.32;17.28;98435.19;5086049;27;20043;-79
2023/07/31 10:19:38;;;;;;;6.13;5.68;;;;;;;42.13;17.75;98427.16;5076926;27;20035;-69
2023/07/31 10:22:06;;;;;;;6.32;5.72;;;;;;;39.91;18.67;98435.34;5079243;27;20054;-70
2023/07/31 10:24:34;;;;;;;5.38;4.70;;;;;;;38.36;20.13;98438.63;5097721;27;20042;-70
2023/07/31 10:27:03;;;;;;;10.75;4.90;;;;;;;37.04;21.27;98447.38;5083741;27;20389;-70
2023/07/31 10:29:30;;;;;;;6.30;4.63;;;;;;;36.91;21.82;98441.84;5097410;27;20039;-71
2023/07/31 10:31:58;;;;;;;6.03;5.00;;;;;;;37.11;22.04;98446.97;5098118;27;20039;-70
2023/07/31 10:34:27;;;;;;;7.32;4.82;;;;;;;36.64;22.26;98448.19;5095860;27;20488;-70
2023/07/31 10:37:24;;;;;;;4.35;4.00;;;;;;;35.65;23.56;98443.84;5078059;28;20043;-70
2023/07/31 10:39:56;;;;;;;4.47;4.07;;;;;;;34.74;23.74;98442.31;5078006;28;20050;-71
2023/07/31 10:42:39;;;;;;;4.53;4.05;;;;;;;33.87;25.04;98438.78;5086161;27;20039;-73
2023/07/31 10:45:11;;;;;;;5.20;4.30;;;;;;;32.66;26.09;98445.81;5079408;27;20591;-73
2023/07/31 10:47:45;;;;;;;7.45;4.13;;;;;;;31.93;28.03;98446.25;5097626;27;20512;-72
2023/07/31 10:50:21;;;;;;;3.90;3.50;;;;;;;31.26;28.46;98441.78;5090253;27;20039;-72
2023/07/31 10:52:51;;;;;;;6.82;4.10;;;;;;;30.65;29.85;98441.56;5084727;27;20043;-71
2023/07/31 10:55:40;;;;;;;5.43;4.60;;;;;;;30.36;30.35;98445.78;5072169;27;20050;-71
2023/07/31 10:58:08;;;;;;;14.05;9.75;;;;;;;29.83;31.91;98436.59;5075857;27;20055;-73
2023/07/31 11:00:38;;;;;;;10.90;6.88;;;;;;;29.92;32.99;98443.25;5103578;27;20440;-71
2023/07/31 11:03:13;;;;;;;7.20;5.00;;;;;;;30.05;32.08;98439.25;5079390;28;20039;-78
2023/07/31 11:06:03;;;;;;;5.57;3.70;;;;;;;30.31;31.54;98440.25;5052914;28;20052;-74
2023/07/31 11:08:35;;;;;;;7.57;3.90;;;;;;;29.96;31.51;98430.69;5077032;27;20508;-75
2023/07/31 11:11:03;;;;;;;5.15;4.05;;;;;;;29.78;30.77;98422.84;5095334;27;20043;-73
2023/07/31 11:13:39;;;;;;;5.65;4.25;;;;;;;29.60;32.00;98428.72;5078879;27;20046;-71
2023/07/31 11:16:04;;;;;;;4.65;3.63;;;;;;;29.38;31.94;98426.06;5078847;27;20055;-71
2023/07/31 11:18:29;;;;;;;5.97;4.82;;;;;;;29.18;32.77;98426.66;5071458;28;20044;-72
2023/07/31 11:20:56;;;;;;;5.60;3.95;;;;;;;28.97;33.30;98435.78;5078935;28;20043;-76
2023/07/31 11:23:25;;;;;;;3.88;3.30;;;;;;;28.75;33.38;98426.72;5079015;28;20036;-70
2023/07/31 11:25:51;;;;;;;4.05;3.53;;;;;;;28.57;33.37;98436.06;5094082;27;20049;-75
2023/07/31 11:28:20;;;;;;;4.72;3.42;;;;;;;28.44;34.22;98434.53;5044367;27;20035;-74
2023/07/31 11:30:47;;;;;;;4.85;3.90;;;;;;;28.38;34.26;98432.00;5096605;27;20052;-73
2023/07/31 11:33:18;;;;;;;4.40;3.95;;;;;;;28.31;34.95;98434.94;5077191;27;20049;-75
2023/07/31 11:35:47;;;;;;;5.07;4.18;;;;;;;28.27;35.03;98430.19;5059296;27;20054;-73
2023/07/31 11:41:19;;;;;;;5.47;3.72;;;;;;;28.28;33.81;98432.69;5065317;27;20043;-75
2023/07/31 11:43:47;;;;;;;6.22;3.72;;;;;;;28.31;33.56;98431.34;5091648;27;20572;-74
2023/07/31 11:46:15;;;;;;;4.65;3.75;;;;;;;28.34;33.72;98430.81;5065919;27;20043;-74
2023/07/31 11:48:40;;;;;;;6.60;3.78;;;;;;;28.31;33.52;98423.97;5064968;27;20042;-73
2023/07/31 11:51:14;;;;;;;5.50;4.03;;;;;;;28.14;34.56;98437.66;5074037;27;20047;-72
2023/07/31 11:54:08;;;;;;;7.68;4.07;;;;;;;28.20;34.82;98441.34;5093351;27;20060;-73
2023/07/31 11:56:34;;;;;;;6.68;3.60;;;;;;;28.02;34.94;98438.84;5073127;27;20039;-73
2023/07/31 11:59:03;;;;;;;8.13;3.47;;;;;;;27.97;34.72;98434.13;5093406;27;20039;-75
2023/07/31 12:01:29;;;;;;;7.50;4.88;;;;;;;27.97;34.59;98427.81;5091273;27;20039;-74
2023/07/31 12:03:54;;;;;;;5.30;4.15;;;;;;;27.99;35.00;98437.44;5087735;27;20046;-76
2023/07/31 12:06:21;;;;;;;7.15;4.00;;;;;;;27.94;34.01;98439.28;5072648;28;20429;-74
2023/07/31 12:08:52;;;;;;;7.93;4.97;;;;;;;27.81;34.84;98438.53;5073640;28;20503;-74
2023/07/31 12:11:23;;;;;;;8.90;4.47;;;;;;;27.88;35.81;98437.56;5054208;28;20048;-75
2023/07/31 12:14:42;;;;;;;7.82;3.55;;;;;;;28.06;34.19;98434.53;5071544;28;20054;-75